Time;durP1;ratioP1;P1;durP2;ratioP2;P2;SDS_P1;SDS_P2;PMS_P1;PMS_P2;Temp;Humidity;BMP_temperature;BMP_pressure;BME280_temperature;BME280_humidity;BME280_pressure;Samples;Min_cycle;Max_cycle;Signal;HPM_P1;HPM_P2
2024/04/21 00:00:52;;;;;;;;;;;;;;;5.64;64.53;101555.75;4400392;26;19986;-84
2024/04/21 00:03:15;;;;;;;;;;;;;;;5.60;65.19;101552.50;4385378;27;20316;-84
2024/04/21 00:09:03;;;;;;;;;;;;;;;5.53;65.91;101550.44;4425984;26;19937;-85
2024/04/21 00:15:03;;;;;;;;;;;;;;;5.41;67.05;101560.31;4368064;27;19938;-84
2024/04/21 00:21:08;;;;;;;;;;;;;;;5.26;68.09;101559.72;4369890;27;19938;-83
2024/04/21 00:23:36;;;;;;;;;;;;;;;5.16;68.83;101556.06;4390860;27;20017;-85
2024/04/21 00:26:26;;;;;;;;;;;;;;;5.15;68.62;101570.44;4367443;27;19942;-85
2024/04/21 00:28:48;;;;;;;;;;;;;;;5.09;68.71;101568.22;4359275;27;19998;-85
2024/04/21 00:31:12;;;;;;;;;;;;;;;5.03;69.00;101573.09;4361056;27;19938;-85
2024/04/21 00:34:05;;;;;;;;;;;;;;;4.99;69.57;101568.94;4367881;27;19964;-85
2024/04/21 00:40:09;;;;;;;;;;;;;;;4.89;69.93;101576.00;4397434;27;20005;-85
2024/04/21 00:42:57;;;;;;;;;;;;;;;4.85;70.18;101572.69;4368061;27;20083;-85
2024/04/21 00:45:20;;;;;;;;;;;;;;;4.82;70.13;101577.44;4398276;27;19941;-84
2024/04/21 00:47:40;;;;;;;;;;;;;;;4.78;69.92;101571.50;4367569;27;20016;-85
2024/04/21 01:00:51;;;;;;;;;;;;;;;4.61;69.91;101574.63;4369332;27;20024;-85
2024/04/21 01:10:04;;;;;;;;;;;;;;;4.46;69.90;101571.28;4368380;27;20422;-85
2024/04/21 01:12:52;;;;;;;;;;;;;;;4.44;70.24;101575.91;4340682;27;20256;-85
2024/04/21 01:15:52;;;;;;;;;;;;;;;4.42;70.00;101580.50;4340775;27;19939;-85
2024/04/21 01:18:38;;;;;;;;;;;;;;;4.39;70.15;101578.06;4340601;27;19938;-84
2024/04/21 01:21:51;;;;;;;;;;;;;;;4.35;70.12;101579.28;4341661;27;19938;-84
2024/04/21 01:24:40;;;;;;;;;;;;;;;4.27;69.89;101582.53;4389673;27;20001;-84
2024/04/21 01:27:03;;;;;;;;;;;;;;;4.27;70.00;101595.88;4393356;26;19981;-87
2024/04/21 01:29:23;;;;;;;;;;;;;;;4.22;70.37;101585.53;4393675;27;20008;-86
2024/04/21 01:31:46;;;;;;;;;;;;;;;4.19;70.61;101588.44;4368408;27;20001;-85
2024/04/21 01:34:06;;;;;;;;;;;;;;;4.16;70.37;101586.00;4393598;27;20332;-85
2024/04/21 01:36:29;;;;;;;;;;;;;;;4.12;71.08;101590.72;4396841;27;19936;-85
2024/04/21 01:38:51;;;;;;;;;;;;;;;4.08;70.83;101585.72;4397635;27;20435;-86
2024/04/21 01:41:16;;;;;;;;;;;;;;;4.02;70.47;101584.34;4395892;27;20455;-85
2024/04/21 01:43:36;;;;;;;;;;;;;;;3.97;71.21;101587.34;4370075;27;19985;-87
2024/04/21 01:46:00;;;;;;;;;;;;;;;3.95;70.81;101591.13;4397441;27;20011;-86
2024/04/21 01:48:19;;;;;;;;;;;;;;;3.93;70.88;101585.03;4364429;26;19942;-85
2024/04/21 01:50:42;;;;;;;;;;;;;;;3.90;71.59;101586.13;4400675;26;19937;-84
2024/04/21 01:53:06;;;;;;;;;;;;;;;3.86;71.32;101598.00;4372347;27;20353;-85
2024/04/21 01:55:29;;;;;;;;;;;;;;;3.84;70.97;101594.59;4372192;27;19963;-85
2024/04/21 01:58:17;;;;;;;;;;;;;;;3.81;70.97;101599.28;4398794;27;19938;-85
2024/04/21 02:00:40;;;;;;;;;;;;;;;3.77;71.34;101601.34;4344817;27;19965;-85
2024/04/21 02:03:00;;;;;;;;;;;;;;;3.73;71.59;101600.72;4370594;27;20018;-85
2024/04/21 02:05:23;;;;;;;;;;;;;;;3.71;71.08;101607.13;4362503;27;20005;-84
2024/04/21 02:07:47;;;;;;;;;;;;;;;3.67;71.31;101602.94;4368217;27;20445;-85
2024/04/21 02:10:11;;;;;;;;;;;;;;;3.66;71.76;101610.13;4396100;27;20034;-84
2024/04/21 02:12:32;;;;;;;;;;;;;;;3.65;71.82;101611.06;4379775;27;19941;-85
2024/04/21 02:14:57;;;;;;;;;;;;;;;3.65;71.57;101603.06;4411196;26;20328;-85
2024/04/21 02:17:17;;;;;;;;;;;;;;;3.64;71.27;101603.16;4396927;27;19941;-88
2024/04/21 02:19:41;;;;;;;;;;;;;;;3.64;71.16;101600.50;4395606;27;20000;-84
2024/04/21 02:22:01;;;;;;;;;;;;;;;3.63;71.31;101607.66;4392681;27;19941;-85
2024/04/21 02:24:29;;;;;;;;;;;;;;;3.63;71.36;101605.00;4391372;27;19937;-83
2024/04/21 02:26:49;;;;;;;;;;;;;;;3.61;70.98;101605.09;4394362;27;20274;-83
2024/04/21 02:29:12;;;;;;;;;;;;;;;3.60;71.28;101605.22;4396632;27;19937;-86
2024/04/21 02:31:35;;;;;;;;;;;;;;;3.59;71.26;101606.19;4386028;27;19938;-84
2024/04/21 02:33:58;;;;;;;;;;;;;;;3.58;70.95;101608.00;4393195;27;19982;-84
2024/04/21 02:36:18;;;;;;;;;;;;;;;3.57;71.10;101608.97;4394755;27;19938;-83
2024/04/21 02:38:43;;;;;;;;;;;;;;;3.55;70.63;101605.53;4417696;26;20004;-85
2024/04/21 02:41:03;;;;;;;;;;;;;;;3.54;70.45;101605.66;4394652;27;19942;-84
2024/04/21 02:43:26;;;;;;;;;;;;;;;3.53;70.97;101609.31;4370374;27;19964;-88
2024/04/21 02:45:45;;;;;;;;;;;;;;;3.51;70.80;101608.53;4395022;27;20506;-83
2024/04/21 02:48:11;;;;;;;;;;;;;;;3.51;70.84;101603.19;4391001;27;20423;-83
2024/04/21 02:50:31;;;;;;;;;;;;;;;3.49;70.23;101608.66;4396003;27;19937;-84
2024/04/21 02:52:54;;;;;;;;;;;;;;;3.49;70.29;101615.81;4371965;27;19938;-84
2024/04/21 02:55:14;;;;;;;;;;;;;;;3.47;70.76;101607.91;4396813;27;19973;-86
2024/04/21 02:57:37;;;;;;;;;;;;;;;3.46;70.59;101614.22;4386486;27;20328;-83
2024/04/21 02:59:57;;;;;;;;;;;;;;;3.46;70.09;101608.03;4417135;26;19937;-82
2024/04/21 03:02:20;;;;;;;;;;;;;;;3.43;69.86;101615.31;4393153;27;20010;-84
2024/04/21 03:04:46;;;;;;;;;;;;;;;3.41;70.03;101619.03;4415622;26;19992;-85
2024/04/21 03:07:08;;;;;;;;;;;;;;;3.38;69.98;101621.91;4394657;27;19937;-84
2024/04/21 03:09:29;;;;;;;;;;;;;;;3.34;70.15;101615.97;4369591;27;19938;-84
2024/04/21 03:11:53;;;;;;;;;;;;;;;3.33;69.68;101621.41;4419305;26;19937;-84
2024/04/21 03:14:27;;;;;;;;;;;;;;;3.29;70.08;101619.91;4396103;26;19938;-84
2024/04/21 03:16:53;;;;;;;;;;;;;;;3.24;70.03;101615.75;4419431;26;20009;-84
2024/04/21 03:19:13;;;;;;;;;;;;;;;3.22;69.76;101620.34;4357831;27;20353;-85
2024/04/21 03:21:39;;;;;;;;;;;;;;;3.21;70.20;101617.75;4396945;27;19972;-85
2024/04/21 03:23:59;;;;;;;;;;;;;;;3.17;70.25;101614.47;4384147;27;20004;-88
2024/04/21 03:26:22;;;;;;;;;;;;;;;3.16;69.87;101620.75;4372228;27;20073;-84
2024/04/21 03:28:42;;;;;;;;;;;;;;;3.14;70.43;101619.19;4400010;27;19999;-85
2024/04/21 03:31:05;;;;;;;;;;;;;;;3.12;70.08;101621.06;4394782;27;19937;-86
2024/04/21 03:33:26;;;;;;;;;;;;;;;3.09;69.46;101618.63;4395077;27;20000;-85
2024/04/21 03:35:49;;;;;;;;;;;;;;;3.09;69.61;101629.28;4392418;27;19941;-89
2024/04/21 03:38:14;;;;;;;;;;;;;;;3.07;69.74;101626.72;4391894;27;20000;-83
2024/04/21 03:40:37;;;;;;;;;;;;;;;3.06;70.13;101627.72;4394869;27;19981;-83
2024/04/21 03:43:00;;;;;;;;;;;;;;;3.07;69.88;101624.06;4417426;26;20005;-84
2024/04/21 03:49:13;;;;;;;;;;;;;;;3.04;70.25;101630.50;4397467;27;20008;-84
2024/04/21 03:55:50;;;;;;;;;;;;;;;2.97;69.66;101636.34;4397562;27;19937;-85
2024/04/21 03:58:18;;;;;;;;;;;;;;;2.96;69.56;101637.31;4371353;27;19960;-85
2024/04/21 04:07:54;;;;;;;;;;;;;;;2.96;69.33;101664.88;4398677;27;19989;-85
2024/04/21 04:14:14;;;;;;;;;;;;;;;2.91;69.30;101653.63;4398664;26;19936;-86
2024/04/21 04:20:20;;;;;;;;;;;;;;;3.01;68.85;101673.41;4426160;26;20004;-85
2024/04/21 04:22:40;;;;;;;;;;;;;;;3.04;68.46;101675.88;4426659;26;19937;-85
2024/04/21 04:34:47;;;;;;;;;;;;;;;3.18;67.77;101682.06;4422569;26;19983;-85
2024/04/21 04:37:09;;;;;;;;;;;;;;;3.19;67.72;101681.94;4395027;26;19999;-85
2024/04/21 04:39:33;;;;;;;;;;;;;;;3.21;67.55;101685.38;4386174;27;19940;-86
2024/04/21 04:41:53;;;;;;;;;;;;;;;3.22;67.18;101695.09;4412187;26;19937;-85
2024/04/21 04:44:16;;;;;;;;;;;;;;;3.27;67.52;101699.25;4423765;26;19941;-85
2024/04/21 04:46:37;;;;;;;;;;;;;;;3.31;67.10;101696.28;4353224;26;19938;-85
2024/04/21 04:48:59;;;;;;;;;;;;;;;3.34;66.69;101704.06;4413197;26;19937;-86
2024/04/21 04:51:24;;;;;;;;;;;;;;;3.38;67.00;101705.56;4399692;26;19941;-85
2024/04/21 04:53:46;;;;;;;;;;;;;;;3.43;66.95;101716.78;4420016;26;19937;-84
2024/04/21 04:56:07;;;;;;;;;;;;;;;3.46;65.72;101715.69;4423545;26;19937;-85
2024/04/21 04:58:30;;;;;;;;;;;;;;;3.51;66.14;101720.72;4398187;26;19937;-86
2024/04/21 05:00:50;;;;;;;;;;;;;;;3.53;65.52;101724.16;4422105;26;20012;-85
2024/04/21 05:03:13;;;;;;;;;;;;;;;3.58;65.15;101722.03;4423631;26;19937;-85
2024/04/21 05:05:32;;;;;;;;;;;;;;;3.63;65.38;101722.53;4346189;27;20022;-86
2024/04/21 05:07:59;;;;;;;;;;;;;;;3.66;65.12;101722.34;4395850;26;20431;-86
2024/04/21 05:10:19;;;;;;;;;;;;;;;3.69;65.00;101730.13;4392284;26;19938;-87
2024/04/21 05:12:41;;;;;;;;;;;;;;;3.73;64.31;101733.44;4396494;27;19985;-87
2024/04/21 05:18:44;;;;;;;;;;;;;;;3.79;64.53;101733.88;4373739;27;20253;-86
2024/04/21 05:21:29;;;;;;;;;;;;;;;3.82;64.00;101743.47;4422758;26;19937;-85
2024/04/21 05:23:56;;;;;;;;;;;;;;;3.85;64.16;101742.41;4402068;26;20000;-85
2024/04/21 05:26:41;;;;;;;;;;;;;;;3.87;64.13;101744.03;4408547;26;19999;-85
2024/04/21 05:32:36;;;;;;;;;;;;;;;3.94;63.79;101758.66;4401814;26;20067;-85
2024/04/21 05:35:21;;;;;;;;;;;;;;;3.97;62.90;101757.59;4416125;26;20048;-86
2024/04/21 05:37:45;;;;;;;;;;;;;;;4.02;63.32;101757.25;4398504;26;20000;-86
2024/04/21 05:40:09;;;;;;;;;;;;;;;4.04;63.42;101761.50;4399149;26;19938;-85
2024/04/21 05:42:35;;;;;;;;;;;;;;;4.08;63.25;101755.00;4376723;26;20014;-85
2024/04/21 05:45:06;;;;;;;;;;;;;;;4.11;62.98;101756.59;4401111;26;20028;-85
2024/04/21 05:47:29;;;;;;;;;;;;;;;4.16;63.38;101765.13;4423172;26;19981;-85
2024/04/21 05:49:49;;;;;;;;;;;;;;;4.21;62.61;101770.16;4376659;26;20612;-86
2024/04/21 05:52:11;;;;;;;;;;;;;;;4.23;62.64;101768.22;4426577;26;19937;-88
2024/04/21 05:54:32;;;;;;;;;;;;;;;4.24;61.83;101768.09;4426342;26;19937;-86
2024/04/21 05:56:57;;;;;;;;;;;;;;;4.27;62.11;101770.56;4400125;26;19986;-89
2024/04/21 05:59:21;;;;;;;;;;;;;;;4.31;61.76;101771.19;4377962;26;20415;-86
2024/04/21 06:01:43;;;;;;;;;;;;;;;4.35;61.72;101774.53;4391299;26;19987;-87
2024/04/21 06:04:15;;;;;;;;;;;;;;;4.38;61.68;101779.66;4400890;26;20432;-86
2024/04/21 06:06:37;;;;;;;;;;;;;;;4.41;61.19;101782.94;4396231;27;20031;-87
2024/04/21 06:08:57;;;;;;;;;;;;;;;4.45;61.67;101781.78;4426270;26;19999;-86
2024/04/21 06:11:25;;;;;;;;;;;;;;;4.47;60.84;101787.00;4406108;26;19937;-85
2024/04/21 06:13:48;;;;;;;;;;;;;;;4.51;60.96;101783.13;4422926;26;19999;-85
2024/04/21 06:16:11;;;;;;;;;;;;;;;4.53;60.28;101786.56;4398635;26;19945;-86
2024/04/21 06:18:31;;;;;;;;;;;;;;;4.57;60.38;101788.03;4378567;26;20698;-85
2024/04/21 06:20:54;;;;;;;;;;;;;;;4.61;60.15;101791.34;4406162;26;20361;-86
2024/04/21 06:23:13;;;;;;;;;;;;;;;4.64;59.90;101797.31;4395955;27;20642;-86
2024/04/21 06:25:36;;;;;;;;;;;;;;;4.68;59.40;101795.28;4424421;26;19936;-85
2024/04/21 06:27:56;;;;;;;;;;;;;;;4.72;59.08;101795.88;4399769;26;19938;-86
2024/04/21 06:30:21;;;;;;;;;;;;;;;4.75;59.01;101795.66;4386496;27;19942;-86
2024/04/21 06:32:42;;;;;;;;;;;;;;;4.79;59.43;101802.50;4402283;26;19940;-86
2024/04/21 06:35:05;;;;;;;;;;;;;;;4.82;58.77;101800.44;4399818;26;20009;-86
2024/04/21 06:37:25;;;;;;;;;;;;;;;4.85;58.94;101807.41;4389607;26;19942;-86
2024/04/21 06:39:49;;;;;;;;;;;;;;;4.88;58.39;101808.03;4425689;26;19937;-86
2024/04/21 06:42:09;;;;;;;;;;;;;;;4.91;57.43;101808.78;4425226;26;20601;-86
2024/04/21 06:44:32;;;;;;;;;;;;;;;4.95;57.91;101813.78;4397462;26;20351;-86
2024/04/21 06:46:55;;;;;;;;;;;;;;;4.98;57.70;101816.22;4425738;26;19946;-87
2024/04/21 06:49:18;;;;;;;;;;;;;;;5.01;57.43;101820.50;4426725;26;19941;-86
2024/04/21 06:51:38;;;;;;;;;;;;;;;5.03;56.69;101811.41;4425764;26;19937;-88
2024/04/21 06:54:06;;;;;;;;;;;;;;;5.07;56.27;101808.50;4387108;26;20363;-86
2024/04/21 06:56:28;;;;;;;;;;;;;;;5.08;56.28;101813.75;4419891;26;21320;-85
2024/04/21 06:58:52;;;;;;;;;;;;;;;5.11;57.00;101818.88;4423965;26;20020;-86
2024/04/21 07:01:12;;;;;;;;;;;;;;;5.14;56.27;101825.81;4424246;26;19960;-87
2024/04/21 07:03:39;;;;;;;;;;;;;;;5.17;56.61;101829.13;4422782;26;19999;-86
2024/04/21 07:06:01;;;;;;;;;;;;;;;5.20;56.62;101828.91;4378554;26;19938;-85
2024/04/21 07:08:26;;;;;;;;;;;;;;;5.23;56.35;101822.44;4425518;26;20024;-86
2024/04/21 07:10:46;;;;;;;;;;;;;;;5.25;56.21;101823.19;4424929;26;19937;-86
2024/04/21 07:13:08;;;;;;;;;;;;;;;5.29;56.46;101821.97;4367221;26;20461;-85
2024/04/21 07:15:43;;;;;;;;;;;;;;;5.32;56.28;101826.25;4425218;26;19941;-85
2024/04/21 07:18:13;;;;;;;;;;;;;;;5.36;56.32;101817.00;4416665;26;19940;-88
2024/04/21 07:21:03;;;;;;;;;;;;;;;5.38;56.21;101831.16;4404667;26;19936;-85
2024/04/21 07:23:27;;;;;;;;;;;;;;;5.41;56.58;101822.88;4425578;26;19940;-84
2024/04/21 07:25:47;;;;;;;;;;;;;;;5.45;56.41;101826.16;4376148;26;20369;-84
2024/04/21 07:28:13;;;;;;;;;;;;;;;5.47;56.03;101825.09;4395123;26;20001;-86
2024/04/21 07:30:35;;;;;;;;;;;;;;;5.50;56.21;101835.59;4398580;26;19981;-85
2024/04/21 07:32:57;;;;;;;;;;;;;;;5.53;57.00;101827.31;4395509;26;20432;-84
2024/04/21 07:35:18;;;;;;;;;;;;;;;5.57;56.96;101830.59;4420204;26;19999;-86
2024/04/21 07:37:44;;;;;;;;;;;;;;;5.60;57.30;101835.72;4425362;26;19958;-85
2024/04/21 07:40:05;;;;;;;;;;;;;;;5.63;57.60;101827.44;4400222;26;20010;-86
2024/04/21 07:42:28;;;;;;;;;;;;;;;5.67;57.65;101836.94;4386540;26;19937;-85
2024/04/21 07:44:48;;;;;;;;;;;;;;;5.70;57.13;101822.47;4424700;26;19968;-84
2024/04/21 07:47:12;;;;;;;;;;;;;;;5.73;57.12;101831.09;4415222;26;19937;-86
2024/04/21 07:49:32;;;;;;;;;;;;;;;5.76;57.06;101838.91;4417397;26;20381;-85
2024/04/21 07:51:55;;;;;;;;;;;;;;;5.78;56.75;101837.00;4399926;26;20451;-84
2024/04/21 07:54:19;;;;;;;;;;;;;;;5.82;56.53;101839.44;4425611;26;19937;-85
2024/04/21 07:56:42;;;;;;;;;;;;;;;5.85;57.10;101845.41;4400476;26;19949;-85
2024/04/21 07:59:04;;;;;;;;;;;;;;;5.88;57.90;101838.97;4402288;26;19985;-86
2024/04/21 08:01:27;;;;;;;;;;;;;;;5.91;57.79;101846.78;4420694;26;20290;-87
2024/04/21 08:03:48;;;;;;;;;;;;;;;5.90;57.40;101840.53;4398396;26;20009;-88
2024/04/21 08:06:11;;;;;;;;;;;;;;;5.97;57.87;101845.44;4398737;26;19936;-86
2024/04/21 08:08:34;;;;;;;;;;;;;;;6.00;58.18;101848.72;4426772;26;20021;-86
2024/04/21 08:11:02;;;;;;;;;;;;;;;6.03;57.64;101842.28;4401224;26;21486;-87
2024/04/21 08:13:22;;;;;;;;;;;;;;;6.05;57.88;101845.69;4423867;26;19941;-85
2024/04/21 08:15:49;;;;;;;;;;;;;;;6.08;57.98;101842.78;4391413;27;20288;-87
2024/04/21 08:18:10;;;;;;;;;;;;;;;6.12;57.99;101842.41;4393500;27;19937;-87
2024/04/21 08:20:35;;;;;;;;;;;;;;;6.13;57.91;101841.44;4393066;27;19946;-85
2024/04/21 08:22:56;;;;;;;;;;;;;;;6.17;58.21;101841.19;4394370;27;20365;-88
2024/04/21 08:25:19;;;;;;;;;;;;;;;6.20;58.04;101838.28;4390364;27;19936;-85
2024/04/21 08:27:42;;;;;;;;;;;;;;;6.21;58.30;101846.22;4392116;26;19937;-88
2024/04/21 08:30:07;;;;;;;;;;;;;;;6.24;58.12;101845.13;4364496;27;19942;-85
2024/04/21 08:32:53;;;;;;;;;;;;;;;6.27;57.87;101845.72;4394994;27;19990;-85
2024/04/21 08:35:16;;;;;;;;;;;;;;;6.30;57.84;101844.59;4388219;27;19966;-85
2024/04/21 08:37:36;;;;;;;;;;;;;;;6.33;58.20;101847.03;4390660;27;20277;-86
2024/04/21 08:40:02;;;;;;;;;;;;;;;6.37;57.93;101845.84;4365354;27;19938;-84
2024/04/21 08:42:23;;;;;;;;;;;;;;;6.39;58.13;101856.44;4393276;27;20684;-84
2024/04/21 08:44:50;;;;;;;;;;;;;;;6.41;58.17;101851.81;4396257;27;20380;-84
2024/04/21 08:47:12;;;;;;;;;;;;;;;6.42;57.94;101843.63;4386220;27;20356;-83
2024/04/21 08:49:38;;;;;;;;;;;;;;;6.46;58.00;101850.47;4378197;27;19975;-84
2024/04/21 08:52:03;;;;;;;;;;;;;;;6.48;58.01;101842.28;4397003;27;19938;-84
2024/04/21 08:54:36;;;;;;;;;;;;;;;6.51;58.06;101843.91;4371356;27;19938;-83
2024/04/21 08:57:18;;;;;;;;;;;;;;;6.55;57.49;101846.22;4399381;27;20541;-84
2024/04/21 08:59:45;;;;;;;;;;;;;;;6.58;57.45;101845.09;4360061;27;20261;-84
2024/04/21 09:02:13;;;;;;;;;;;;;;;6.59;57.67;101841.44;4374941;27;19938;-85
2024/04/21 09:04:37;;;;;;;;;;;;;;;6.62;56.85;101842.03;4392028;27;20013;-83
2024/04/21 09:07:23;;;;;;;;;;;;;;;6.65;57.45;101847.16;4388067;27;20095;-83
2024/04/21 09:09:47;;;;;;;;;;;;;;;6.68;57.43;101849.59;4390791;27;19937;-88
2024/04/21 09:12:07;;;;;;;;;;;;;;;6.71;57.34;101850.31;4398610;27;19942;-89
2024/04/21 09:14:30;;;;;;;;;;;;;;;6.75;56.91;101841.88;4399374;26;19941;-90
2024/04/21 09:16:55;;;;;;;;;;;;;;;6.79;56.10;101847.88;4378736;26;20000;-88
2024/04/21 09:19:21;;;;;;;;;;;;;;;6.81;56.15;101846.75;4381871;27;19962;-87
2024/04/21 09:21:42;;;;;;;;;;;;;;;6.85;56.25;101845.53;4424078;26;20539;-85
2024/04/21 09:24:43;;;;;;;;;;;;;;;6.88;55.83;101848.94;4380405;26;19950;-84
2024/04/21 09:27:04;;;;;;;;;;;;;;;6.93;55.38;101841.34;4418807;26;19984;-85
2024/04/21 09:29:27;;;;;;;;;;;;;;;6.94;55.69;101837.69;4401573;26;20357;-84
2024/04/21 09:35:15;;;;;;;;;;;;;;;7.00;55.37;101840.72;4407841;26;20276;-86
2024/04/21 09:38:01;;;;;;;;;;;;;;;7.04;55.43;101846.72;4399750;27;20407;-84
2024/04/21 09:40:28;;;;;;;;;;;;;;;7.06;55.18;101836.69;4434609;26;19936;-83
2024/04/21 09:42:49;;;;;;;;;;;;;;;7.08;55.31;101834.72;4403543;26;20439;-89
2024/04/21 09:45:13;;;;;;;;;;;;;;;7.11;55.09;101839.00;4373126;27;19963;-86
2024/04/21 09:47:33;;;;;;;;;;;;;;;7.14;55.14;101839.59;4414175;26;19937;-82
2024/04/21 09:49:58;;;;;;;;;;;;;;;7.17;55.02;101836.63;4423091;26;19936;-87
2024/04/21 09:52:20;;;;;;;;;;;;;;;7.20;54.91;101828.31;4390831;27;19938;-85
2024/04/21 09:54:49;;;;;;;;;;;;;;;7.23;54.99;101843.34;4387791;26;19937;-82
2024/04/21 09:57:11;;;;;;;;;;;;;;;7.26;54.13;101832.34;4398803;26;20000;-82
2024/04/21 09:59:34;;;;;;;;;;;;;;;7.28;54.26;101845.66;4392038;26;19941;-83
2024/04/21 10:01:54;;;;;;;;;;;;;;;7.29;54.19;101840.16;4398471;26;19937;-84
2024/04/21 10:04:19;;;;;;;;;;;;;;;7.31;54.31;101840.88;4421363;26;19936;-84
2024/04/21 10:06:48;;;;;;;;;;;;;;;7.33;54.01;101843.44;4403867;26;19937;-84
2024/04/21 10:09:15;;;;;;;;;;;;;;;7.35;54.05;101841.44;4400781;26;20028;-83
2024/04/21 10:11:35;;;;;;;;;;;;;;;7.37;54.04;101842.19;4428060;26;19937;-83
2024/04/21 10:13:59;;;;;;;;;;;;;;;7.40;53.85;101844.63;4423797;26;19937;-84
2024/04/21 10:16:46;;;;;;;;;;;;;;;7.42;54.06;101839.13;4368281;27;20017;-86
2024/04/21 10:19:09;;;;;;;;;;;;;;;7.44;53.63;101839.84;4342589;27;19938;-90
2024/04/21 10:21:29;;;;;;;;;;;;;;;7.46;54.05;101840.56;4367260;27;20391;-86
2024/04/21 10:23:53;;;;;;;;;;;;;;;7.49;54.05;101842.97;4376359;27;19945;-89
2024/04/21 10:26:19;;;;;;;;;;;;;;;7.49;53.91;101826.84;4329796;27;20010;-88
2024/04/21 10:28:44;;;;;;;;;;;;;;;7.51;53.99;101841.88;4376786;27;20005;-85
2024/04/21 10:31:04;;;;;;;;;;;;;;;7.53;54.27;101834.53;4365710;27;20002;-84
2024/04/21 10:33:30;;;;;;;;;;;;;;;7.54;53.82;101838.94;4364498;27;19968;-83
2024/04/21 10:35:51;;;;;;;;;;;;;;;7.56;53.84;101850.41;4365256;27;20001;-83
2024/04/21 10:38:17;;;;;;;;;;;;;;;7.58;54.15;101843.03;4361479;27;20059;-84
2024/04/21 10:40:38;;;;;;;;;;;;;;;7.60;53.94;101840.22;4363200;27;19950;-85
2024/04/21 10:43:04;;;;;;;;;;;;;;;7.62;54.02;101842.78;4390185;26;19945;-81
2024/04/21 10:45:24;;;;;;;;;;;;;;;7.64;54.08;101838.16;4363996;27;19939;-85
2024/04/21 10:47:47;;;;;;;;;;;;;;;7.65;54.10;101834.47;4365356;27;19938;-85
2024/04/21 10:50:09;;;;;;;;;;;;;;;7.67;53.62;101829.81;4339074;27;20001;-86
2024/04/21 10:52:35;;;;;;;;;;;;;;;7.70;54.06;101834.94;4363606;27;20428;-87
2024/04/21 10:54:55;;;;;;;;;;;;;;;7.70;53.95;101830.41;4363276;27;19942;-84
2024/04/21 10:57:18;;;;;;;;;;;;;;;7.72;53.79;101830.28;4364855;27;20385;-84
2024/04/21 10:59:41;;;;;;;;;;;;;;;7.75;53.87;101824.63;4363129;27;19949;-85
2024/04/21 11:02:04;;;;;;;;;;;;;;;7.75;53.88;101809.34;4366733;27;19946;-88
2024/04/21 11:04:25;;;;;;;;;;;;;;;7.77;53.45;101817.28;4365391;27;19938;-84
2024/04/21 11:06:48;;;;;;;;;;;;;;;7.79;53.70;101820.69;4413421;26;19937;-86
2024/04/21 11:09:09;;;;;;;;;;;;;;;7.81;53.38;101818.72;4366339;27;20317;-86
2024/04/21 11:11:35;;;;;;;;;;;;;;;7.84;53.49;101814.94;4365183;27;20341;-85
2024/04/21 11:13:55;;;;;;;;;;;;;;;7.85;53.34;101825.56;4358956;27;19964;-84
2024/04/21 11:16:23;;;;;;;;;;;;;;;7.83;53.09;101811.38;4415560;26;19936;-84
2024/04/21 11:18:43;;;;;;;;;;;;;;;7.89;53.63;101818.06;4419296;26;19937;-84
2024/04/21 11:21:06;;;;;;;;;;;;;;;7.91;53.47;101825.00;4392223;26;19966;-85
2024/04/21 16:19:50;;;;;;;;;;;;;;;8.65;60.56;101885.00;4412368;26;19982;-90
2024/04/21 16:22:09;;;;;;;;;;;;;;;8.63;61.23;101884.31;4388820;26;20651;-85
2024/04/21 16:24:32;;;;;;;;;;;;;;;8.62;61.42;101886.16;4401794;26;20261;-90
2024/04/21 16:26:52;;;;;;;;;;;;;;;8.59;62.19;101886.41;4390702;26;20306;-88
2024/04/21 16:29:15;;;;;;;;;;;;;;;8.54;62.63;101877.91;4395381;26;19937;-87
2024/04/21 16:31:41;;;;;;;;;;;;;;;8.52;63.12;101881.72;4391420;27;20028;-91
2024/04/21 16:34:07;;;;;;;;;;;;;;;8.49;62.95;101880.13;4379501;27;19937;-87
2024/04/21 16:36:29;;;;;;;;;;;;;;;8.46;62.88;101873.19;4400103;26;19963;-84
2024/04/21 16:38:58;;;;;;;;;;;;;;;8.46;62.79;101880.41;4394500;27;20320;-84
2024/04/21 16:41:20;;;;;;;;;;;;;;;8.43;62.77;101878.84;4370140;27;19938;-84
2024/04/21 16:43:45;;;;;;;;;;;;;;;8.43;63.07;101875.25;4396739;27;19978;-83
2024/04/21 16:46:05;;;;;;;;;;;;;;;8.42;63.02;101879.78;4395598;27;19937;-86
2024/04/21 16:51:56;;;;;;;;;;;;;;;8.34;63.53;101886.81;4394577;27;19937;-86
2024/04/21 16:54:16;;;;;;;;;;;;;;;8.29;63.55;101882.72;4405506;26;19938;-85
2024/04/21 16:56:39;;;;;;;;;;;;;;;8.25;63.75;101891.19;4391193;27;20397;-86
2024/04/21 16:58:59;;;;;;;;;;;;;;;8.20;63.84;101877.28;4396594;27;19999;-86
2024/04/21 17:01:55;;;;;;;;;;;;;;;8.18;64.28;101879.25;4396717;27;20451;-85
2024/04/21 17:04:17;;;;;;;;;;;;;;;8.14;65.00;101883.19;4394091;27;19937;-90
2024/04/21 17:06:40;;;;;;;;;;;;;;;8.11;64.87;101887.00;4396902;27;19938;-88
2024/04/21 17:09:03;;;;;;;;;;;;;;;8.08;65.11;101879.19;4396052;27;19937;-86
2024/04/21 17:11:26;;;;;;;;;;;;;;;8.04;64.64;101892.06;4397832;26;19937;-88
2024/04/21 17:13:48;;;;;;;;;;;;;;;8.03;64.54;101882.28;4394915;27;20000;-89
2024/04/21 17:16:11;;;;;;;;;;;;;;;8.03;64.59;101876.91;4397960;27;19938;-85
2024/04/21 17:18:32;;;;;;;;;;;;;;;8.00;64.38;101885.25;4388677;27;20273;-87
2024/04/21 17:20:55;;;;;;;;;;;;;;;7.97;64.37;101877.44;4393915;27;20008;-87
2024/04/21 17:23:14;;;;;;;;;;;;;;;7.94;64.18;101881.22;4393471;27;20001;-87
2024/04/21 17:25:40;;;;;;;;;;;;;;;7.92;64.45;101883.19;4396435;27;19938;-87
2024/04/21 17:28:05;;;;;;;;;;;;;;;7.90;64.34;101890.56;4392850;27;20005;-91
2024/04/21 17:30:29;;;;;;;;;;;;;;;7.88;64.69;101881.78;4374642;27;19949;-88
2024/04/21 17:32:49;;;;;;;;;;;;;;;7.86;64.51;101881.03;4406978;26;20000;-85
2024/04/21 17:35:20;;;;;;;;;;;;;;;7.84;64.50;101879.47;4410683;26;19945;-86
2024/04/21 17:37:40;;;;;;;;;;;;;;;7.82;65.19;101881.44;4392352;27;19938;-87
2024/04/21 17:40:02;;;;;;;;;;;;;;;7.79;64.81;101887.94;4386025;27;20038;-87
2024/04/21 17:42:29;;;;;;;;;;;;;;;7.75;65.06;101887.31;4392143;27;19938;-84
2024/04/21 17:44:52;;;;;;;;;;;;;;;7.74;65.29;101887.47;4396278;27;19996;-85
2024/04/21 17:47:12;;;;;;;;;;;;;;;7.71;65.65;101891.28;4395505;27;19938;-86
2024/04/21 17:49:35;;;;;;;;;;;;;;;7.70;66.29;101891.41;4390562;26;19941;-87
2024/04/21 17:51:55;;;;;;;;;;;;;;;7.70;66.37;101894.09;4381660;27;20142;-88
2024/04/21 17:54:20;;;;;;;;;;;;;;;7.68;66.33;101896.03;4393921;26;19937;-84
2024/04/21 17:56:42;;;;;;;;;;;;;;;7.68;66.34;101893.34;4414269;26;20011;-87
2024/04/21 17:59:07;;;;;;;;;;;;;;;7.66;66.24;101892.63;4391917;27;20009;-88
2024/04/21 18:01:31;;;;;;;;;;;;;;;7.65;66.61;101899.88;4394832;26;19945;-84
2024/04/21 18:03:53;;;;;;;;;;;;;;;7.62;66.55;101891.19;4394516;27;20036;-90
2024/04/21 18:06:13;;;;;;;;;;;;;;;7.60;66.66;101902.06;4371362;27;19938;-87
2024/04/21 18:08:36;;;;;;;;;;;;;;;7.58;66.90;101904.03;4419568;26;20268;-87
2024/04/21 18:10:57;;;;;;;;;;;;;;;7.56;67.25;101904.16;4390545;27;19938;-86
2024/04/21 18:13:20;;;;;;;;;;;;;;;7.54;67.58;101907.97;4394488;27;19937;-85
2024/04/21 18:15:44;;;;;;;;;;;;;;;7.52;67.91;101910.81;4415710;26;19999;-86
2024/04/21 18:18:07;;;;;;;;;;;;;;;7.52;67.82;101902.75;4392999;27;20000;-86
2024/04/21 18:20:27;;;;;;;;;;;;;;;7.50;67.90;101907.38;4413034;26;20024;-87
2024/04/21 18:22:51;;;;;;;;;;;;;;;7.48;67.72;101903.97;4390591;27;20012;-89
2024/04/21 18:25:12;;;;;;;;;;;;;;;7.45;67.63;101901.53;4388054;27;20268;-86
2024/04/21 18:27:35;;;;;;;;;;;;;;;7.43;67.39;101908.00;4367734;27;19938;-86
2024/04/21 18:29:56;;;;;;;;;;;;;;;7.39;66.95;101916.31;4368761;27;19938;-89
2024/04/21 18:32:22;;;;;;;;;;;;;;;7.37;66.38;101914.75;4395189;27;19937;-84
2024/04/21 18:34:42;;;;;;;;;;;;;;;7.33;66.10;101918.66;4366995;27;20266;-88
2024/04/21 18:37:07;;;;;;;;;;;;;;;7.30;66.31;101918.94;4368240;27;19938;-83
2024/04/21 18:39:27;;;;;;;;;;;;;;;7.27;65.70;101921.88;4395233;27;19937;-85
2024/04/21 18:41:49;;;;;;;;;;;;;;;7.26;65.78;101929.09;4392175;27;19937;-86
2024/04/21 18:44:10;;;;;;;;;;;;;;;7.21;65.68;101924.09;4395405;27;19937;-85
2024/04/21 18:46:34;;;;;;;;;;;;;;;7.19;65.68;101931.44;4393795;27;20356;-85
2024/04/21 18:48:56;;;;;;;;;;;;;;;7.17;65.51;101922.63;4387767;27;19938;-87